sensor_id;sensor_type;location;lat;lon;timestamp;temperature;humidity
728;DHT22;347;48.780;9.158;2023-05-16T00:00:03;15.80;33.00
728;DHT22;347;48.780;9.158;2023-05-16T00:02:32;15.70;33.10
728;DHT22;347;48.780;9.158;2023-05-16T00:04:57;15.80;33.20
728;DHT22;347;48.780;9.158;2023-05-16T00:07:23;15.70;33.20
728;DHT22;347;48.780;9.158;2023-05-16T00:09:48;15.70;33.30
728;DHT22;347;48.780;9.158;2023-05-16T00:12:14;15.70;33.10
728;DHT22;347;48.780;9.158;2023-05-16T00:14:42;15.60;34.00
728;DHT22;347;48.780;9.158;2023-05-16T00:17:07;15.70;33.90
728;DHT22;347;48.780;9.158;2023-05-16T00:19:37;15.70;33.80
728;DHT22;347;48.780;9.158;2023-05-16T00:22:06;15.70;33.70
728;DHT22;347;48.780;9.158;2023-05-16T00:24:33;15.70;33.70
728;DHT22;347;48.780;9.158;2023-05-16T00:26:58;15.60;33.60
728;DHT22;347;48.780;9.158;2023-05-16T00:29:24;15.70;33.60
728;DHT22;347;48.780;9.158;2023-05-16T00:31:49;15.70;33.80
728;DHT22;347;48.780;9.158;2023-05-16T00:34:15;15.60;33.80
728;DHT22;347;48.780;9.158;2023-05-16T00:36:40;15.60;34.10
728;DHT22;347;48.780;9.158;2023-05-16T00:39:06;15.60;34.20
728;DHT22;347;48.780;9.158;2023-05-16T00:41:33;15.60;34.20
728;DHT22;347;48.780;9.158;2023-05-16T00:43:58;15.50;34.30
728;DHT22;347;48.780;9.158;2023-05-16T00:46:24;15.50;34.70
728;DHT22;347;48.780;9.158;2023-05-16T00:48:50;15.40;35.10
728;DHT22;347;48.780;9.158;2023-05-16T00:51:16;15.50;35.20
728;DHT22;347;48.780;9.158;2023-05-16T00:53:42;15.50;35.00
728;DHT22;347;48.780;9.158;2023-05-16T00:56:09;15.50;35.30
728;DHT22;347;48.780;9.158;2023-05-16T00:58:35;15.50;35.60
728;DHT22;347;48.780;9.158;2023-05-16T01:01:01;15.50;35.60
728;DHT22;347;48.780;9.158;2023-05-16T01:03:28;15.50;35.30
728;DHT22;347;48.780;9.158;2023-05-16T01:05:54;15.50;35.20
728;DHT22;347;48.780;9.158;2023-05-16T01:08:20;15.50;34.90
728;DHT22;347;48.780;9.158;2023-05-16T01:11:19;15.50;35.10
728;DHT22;347;48.780;9.158;2023-05-16T01:16:45;15.50;35.00
728;DHT22;347;48.780;9.158;2023-05-16T01:22:28;15.40;35.10
728;DHT22;347;48.780;9.158;2023-05-16T01:25:30;15.40;35.30
728;DHT22;347;48.780;9.158;2023-05-16T01:27:56;15.40;35.40
728;DHT22;347;48.780;9.158;2023-05-16T01:30:23;15.30;35.30
728;DHT22;347;48.780;9.158;2023-05-16T01:32:48;15.30;35.70
728;DHT22;347;48.780;9.158;2023-05-16T01:35:15;15.20;36.00
728;DHT22;347;48.780;9.158;2023-05-16T01:40:32;15.10;36.00
728;DHT22;347;48.780;9.158;2023-05-16T01:43:02;15.10;36.00
728;DHT22;347;48.780;9.158;2023-05-16T01:45:31;15.00;35.90
728;DHT22;347;48.780;9.158;2023-05-16T01:48:06;14.90;36.20
728;DHT22;347;48.780;9.158;2023-05-16T01:50:36;14.90;36.60
728;DHT22;347;48.780;9.158;2023-05-16T01:53:07;14.90;36.80
728;DHT22;347;48.780;9.158;2023-05-16T01:55:45;14.90;36.70
728;DHT22;347;48.780;9.158;2023-05-16T01:58:16;14.80;36.60
728;DHT22;347;48.780;9.158;2023-05-16T02:00:42;14.70;36.70
728;DHT22;347;48.780;9.158;2023-05-16T02:03:08;14.60;37.90
728;DHT22;347;48.780;9.158;2023-05-16T02:05:34;14.60;37.60
728;DHT22;347;48.780;9.158;2023-05-16T02:08:00;14.60;37.70
728;DHT22;347;48.780;9.158;2023-05-16T02:10:26;14.50;38.10
728;DHT22;347;48.780;9.158;2023-05-16T02:12:52;14.40;38.30
728;DHT22;347;48.780;9.158;2023-05-16T02:15:18;14.40;38.70
728;DHT22;347;48.780;9.158;2023-05-16T02:17:44;14.50;38.40
728;DHT22;347;48.780;9.158;2023-05-16T02:20:10;14.50;38.20
728;DHT22;347;48.780;9.158;2023-05-16T02:22:37;14.60;38.00
728;DHT22;347;48.780;9.158;2023-05-16T02:25:07;14.60;38.20
728;DHT22;347;48.780;9.158;2023-05-16T02:27:33;14.30;38.60
728;DHT22;347;48.780;9.158;2023-05-16T02:29:58;14.10;40.10
728;DHT22;347;48.780;9.158;2023-05-16T02:32:24;14.20;39.90
728;DHT22;347;48.780;9.158;2023-05-16T02:34:50;14.30;39.40
728;DHT22;347;48.780;9.158;2023-05-16T02:37:16;14.10;40.50
728;DHT22;347;48.780;9.158;2023-05-16T02:39:41;14.20;40.00
728;DHT22;347;48.780;9.158;2023-05-16T02:42:07;14.30;39.50
728;DHT22;347;48.780;9.158;2023-05-16T02:44:32;14.30;38.90
728;DHT22;347;48.780;9.158;2023-05-16T02:46:58;14.20;39.20
728;DHT22;347;48.780;9.158;2023-05-16T02:49:24;14.00;40.40
728;DHT22;347;48.780;9.158;2023-05-16T02:51:50;14.00;40.10
728;DHT22;347;48.780;9.158;2023-05-16T02:54:16;14.10;40.30
728;DHT22;347;48.780;9.158;2023-05-16T02:56:41;14.20;40.10
728;DHT22;347;48.780;9.158;2023-05-16T02:59:07;14.30;39.40
728;DHT22;347;48.780;9.158;2023-05-16T03:01:33;14.20;39.30
728;DHT22;347;48.780;9.158;2023-05-16T03:03:59;14.30;39.40
728;DHT22;347;48.780;9.158;2023-05-16T03:06:24;14.20;39.40
728;DHT22;347;48.780;9.158;2023-05-16T03:08:50;14.10;39.80
728;DHT22;347;48.780;9.158;2023-05-16T03:11:17;14.20;39.70
728;DHT22;347;48.780;9.158;2023-05-16T03:13:46;14.20;39.60
728;DHT22;347;48.780;9.158;2023-05-16T03:16:12;14.30;39.20
728;DHT22;347;48.780;9.158;2023-05-16T03:18:37;14.30;39.10
728;DHT22;347;48.780;9.158;2023-05-16T03:21:03;14.30;39.30
728;DHT22;347;48.780;9.158;2023-05-16T03:23:28;14.30;39.20
728;DHT22;347;48.780;9.158;2023-05-16T03:25:54;14.30;39.00
728;DHT22;347;48.780;9.158;2023-05-16T03:28:20;14.30;39.10
728;DHT22;347;48.780;9.158;2023-05-16T03:30:46;14.40;38.80
728;DHT22;347;48.780;9.158;2023-05-16T03:33:11;14.40;38.90
728;DHT22;347;48.780;9.158;2023-05-16T03:35:37;14.40;38.80
728;DHT22;347;48.780;9.158;2023-05-16T03:38:03;14.30;38.70
728;DHT22;347;48.780;9.158;2023-05-16T03:40:29;14.30;39.00
728;DHT22;347;48.780;9.158;2023-05-16T03:42:54;14.40;39.20
728;DHT22;347;48.780;9.158;2023-05-16T03:45:20;14.30;39.10
728;DHT22;347;48.780;9.158;2023-05-16T03:47:47;14.20;40.30
728;DHT22;347;48.780;9.158;2023-05-16T03:50:13;14.10;40.20
728;DHT22;347;48.780;9.158;2023-05-16T03:52:38;14.10;40.80
728;DHT22;347;48.780;9.158;2023-05-16T03:55:04;14.10;41.10
728;DHT22;347;48.780;9.158;2023-05-16T03:57:31;14.10;40.90
728;DHT22;347;48.780;9.158;2023-05-16T03:59:57;14.10;40.70
728;DHT22;347;48.780;9.158;2023-05-16T04:02:22;14.20;41.10
728;DHT22;347;48.780;9.158;2023-05-16T04:04:48;14.20;40.10
728;DHT22;347;48.780;9.158;2023-05-16T04:07:13;14.20;40.50
728;DHT22;347;48.780;9.158;2023-05-16T04:09:39;14.20;40.40
728;DHT22;347;48.780;9.158;2023-05-16T04:12:05;14.30;40.40
728;DHT22;347;48.780;9.158;2023-05-16T04:14:31;14.30;40.50
728;DHT22;347;48.780;9.158;2023-05-16T04:16:58;14.20;40.60
728;DHT22;347;48.780;9.158;2023-05-16T04:19:24;14.10;40.80
728;DHT22;347;48.780;9.158;2023-05-16T04:21:49;14.20;41.10
728;DHT22;347;48.780;9.158;2023-05-16T04:24:15;14.20;41.10
728;DHT22;347;48.780;9.158;2023-05-16T04:26:40;14.20;41.10
728;DHT22;347;48.780;9.158;2023-05-16T04:29:06;14.30;41.00
728;DHT22;347;48.780;9.158;2023-05-16T04:31:32;14.30;40.80
728;DHT22;347;48.780;9.158;2023-05-16T04:33:57;14.40;40.80
728;DHT22;347;48.780;9.158;2023-05-16T04:36:23;14.40;40.50
728;DHT22;347;48.780;9.158;2023-05-16T04:38:49;14.40;40.30
728;DHT22;347;48.780;9.158;2023-05-16T04:41:14;14.40;40.50
728;DHT22;347;48.780;9.158;2023-05-16T04:43:40;14.40;40.50
728;DHT22;347;48.780;9.158;2023-05-16T04:46:06;14.50;40.20
728;DHT22;347;48.780;9.158;2023-05-16T04:48:32;14.50;40.30
728;DHT22;347;48.780;9.158;2023-05-16T04:50:58;14.40;40.30
728;DHT22;347;48.780;9.158;2023-05-16T04:53:23;14.40;40.60
728;DHT22;347;48.780;9.158;2023-05-16T04:55:49;14.40;40.70
728;DHT22;347;48.780;9.158;2023-05-16T04:58:14;14.50;40.50
728;DHT22;347;48.780;9.158;2023-05-16T05:00:40;14.50;40.20
728;DHT22;347;48.780;9.158;2023-05-16T05:03:06;14.60;40.20
728;DHT22;347;48.780;9.158;2023-05-16T05:05:31;14.50;40.00
728;DHT22;347;48.780;9.158;2023-05-16T05:07:57;14.50;40.20
728;DHT22;347;48.780;9.158;2023-05-16T05:10:23;14.50;40.20
728;DHT22;347;48.780;9.158;2023-05-16T05:12:49;14.50;40.20
728;DHT22;347;48.780;9.158;2023-05-16T05:15:15;14.50;40.50
728;DHT22;347;48.780;9.158;2023-05-16T05:17:40;14.40;40.70
728;DHT22;347;48.780;9.158;2023-05-16T05:20:06;14.40;40.90
728;DHT22;347;48.780;9.158;2023-05-16T05:22:34;14.40;40.70
728;DHT22;347;48.780;9.158;2023-05-16T05:25:00;14.30;40.60
728;DHT22;347;48.780;9.158;2023-05-16T05:27:26;14.30;40.90
728;DHT22;347;48.780;9.158;2023-05-16T05:29:52;14.30;41.20
728;DHT22;347;48.780;9.158;2023-05-16T05:32:17;14.20;41.40
728;DHT22;347;48.780;9.158;2023-05-16T05:34:43;14.20;41.60
728;DHT22;347;48.780;9.158;2023-05-16T05:37:08;14.20;41.70
728;DHT22;347;48.780;9.158;2023-05-16T05:39:34;14.20;41.90
728;DHT22;347;48.780;9.158;2023-05-16T05:42:00;14.20;41.90
728;DHT22;347;48.780;9.158;2023-05-16T05:44:28;14.20;42.00
728;DHT22;347;48.780;9.158;2023-05-16T05:46:53;14.20;42.30
728;DHT22;347;48.780;9.158;2023-05-16T05:49:19;14.20;42.00
728;DHT22;347;48.780;9.158;2023-05-16T05:51:45;14.20;42.30
728;DHT22;347;48.780;9.158;2023-05-16T05:54:10;14.20;42.80
728;DHT22;347;48.780;9.158;2023-05-16T05:56:36;14.20;42.90
728;DHT22;347;48.780;9.158;2023-05-16T05:59:01;14.20;42.20
728;DHT22;347;48.780;9.158;2023-05-16T06:01:27;14.30;42.20
728;DHT22;347;48.780;9.158;2023-05-16T06:03:53;14.20;42.40
728;DHT22;347;48.780;9.158;2023-05-16T06:06:18;14.30;42.30
728;DHT22;347;48.780;9.158;2023-05-16T06:08:44;14.40;41.70
728;DHT22;347;48.780;9.158;2023-05-16T06:11:09;14.40;41.60
728;DHT22;347;48.780;9.158;2023-05-16T06:13:35;14.40;41.50
728;DHT22;347;48.780;9.158;2023-05-16T06:16:01;14.40;41.30
728;DHT22;347;48.780;9.158;2023-05-16T06:18:26;14.40;41.30
728;DHT22;347;48.780;9.158;2023-05-16T06:20:52;14.40;41.80
728;DHT22;347;48.780;9.158;2023-05-16T06:23:18;14.40;41.40
728;DHT22;347;48.780;9.158;2023-05-16T06:25:44;14.50;40.80
728;DHT22;347;48.780;9.158;2023-05-16T06:28:09;14.50;40.70
728;DHT22;347;48.780;9.158;2023-05-16T06:30:35;14.50;40.20
728;DHT22;347;48.780;9.158;2023-05-16T06:33:00;14.60;40.40
728;DHT22;347;48.780;9.158;2023-05-16T06:35:26;14.60;39.90
728;DHT22;347;48.780;9.158;2023-05-16T06:37:51;14.50;40.10
728;DHT22;347;48.780;9.158;2023-05-16T06:40:17;14.60;40.10
728;DHT22;347;48.780;9.158;2023-05-16T06:42:42;14.60;40.10
728;DHT22;347;48.780;9.158;2023-05-16T06:45:08;14.60;39.90
728;DHT22;347;48.780;9.158;2023-05-16T06:47:34;14.60;39.90
728;DHT22;347;48.780;9.158;2023-05-16T06:50:08;14.60;40.40
728;DHT22;347;48.780;9.158;2023-05-16T06:52:35;14.60;40.20
728;DHT22;347;48.780;9.158;2023-05-16T06:55:00;14.70;39.70
728;DHT22;347;48.780;9.158;2023-05-16T06:57:26;14.70;40.10
728;DHT22;347;48.780;9.158;2023-05-16T06:59:51;14.60;39.90
728;DHT22;347;48.780;9.158;2023-05-16T07:02:17;14.70;39.70
728;DHT22;347;48.780;9.158;2023-05-16T07:04:42;14.70;39.20
728;DHT22;347;48.780;9.158;2023-05-16T07:07:08;14.70;39.40
728;DHT22;347;48.780;9.158;2023-05-16T07:09:34;14.70;39.50
728;DHT22;347;48.780;9.158;2023-05-16T07:11:59;14.70;39.60
728;DHT22;347;48.780;9.158;2023-05-16T07:14:25;14.60;39.40
728;DHT22;347;48.780;9.158;2023-05-16T07:16:50;14.70;39.50
728;DHT22;347;48.780;9.158;2023-05-16T07:19:16;14.60;39.40
728;DHT22;347;48.780;9.158;2023-05-16T07:21:42;14.70;39.50
728;DHT22;347;48.780;9.158;2023-05-16T07:24:07;14.60;40.00
728;DHT22;347;48.780;9.158;2023-05-16T07:26:33;14.60;39.00
728;DHT22;347;48.780;9.158;2023-05-16T07:28:59;14.60;37.90
728;DHT22;347;48.780;9.158;2023-05-16T07:31:26;14.60;38.90
728;DHT22;347;48.780;9.158;2023-05-16T07:33:52;14.50;37.70
728;DHT22;347;48.780;9.158;2023-05-16T07:36:18;14.50;37.70
728;DHT22;347;48.780;9.158;2023-05-16T07:38:43;14.50;36.40
728;DHT22;347;48.780;9.158;2023-05-16T07:41:09;14.40;36.20
728;DHT22;347;48.780;9.158;2023-05-16T07:43:35;14.30;36.90
728;DHT22;347;48.780;9.158;2023-05-16T07:46:01;14.30;36.90
728;DHT22;347;48.780;9.158;2023-05-16T07:48:27;14.30;37.00
728;DHT22;347;48.780;9.158;2023-05-16T07:50:53;14.40;36.30
728;DHT22;347;48.780;9.158;2023-05-16T07:53:19;14.40;35.60
728;DHT22;347;48.780;9.158;2023-05-16T07:55:45;14.40;35.80
728;DHT22;347;48.780;9.158;2023-05-16T07:58:10;14.50;36.10
728;DHT22;347;48.780;9.158;2023-05-16T08:00:36;14.50;35.50
728;DHT22;347;48.780;9.158;2023-05-16T08:03:01;14.50;36.20
728;DHT22;347;48.780;9.158;2023-05-16T08:05:27;14.50;36.20
728;DHT22;347;48.780;9.158;2023-05-16T08:07:52;14.50;36.20
728;DHT22;347;48.780;9.158;2023-05-16T08:10:20;14.60;36.40
728;DHT22;347;48.780;9.158;2023-05-16T08:12:47;14.50;35.40
728;DHT22;347;48.780;9.158;2023-05-16T08:15:13;14.40;35.40
728;DHT22;347;48.780;9.158;2023-05-16T08:17:38;14.40;35.90
728;DHT22;347;48.780;9.158;2023-05-16T08:20:04;14.40;36.50
728;DHT22;347;48.780;9.158;2023-05-16T08:22:31;14.40;36.70
728;DHT22;347;48.780;9.158;2023-05-16T08:24:57;14.30;36.90
728;DHT22;347;48.780;9.158;2023-05-16T08:27:27;14.30;37.00
728;DHT22;347;48.780;9.158;2023-05-16T08:29:53;14.40;37.10
728;DHT22;347;48.780;9.158;2023-05-16T08:32:18;14.40;36.90
728;DHT22;347;48.780;9.158;2023-05-16T08:34:44;14.30;37.20
728;DHT22;347;48.780;9.158;2023-05-16T08:37:09;14.30;37.30
728;DHT22;347;48.780;9.158;2023-05-16T08:39:37;14.40;36.90
728;DHT22;347;48.780;9.158;2023-05-16T08:42:03;14.30;36.80
728;DHT22;347;48.780;9.158;2023-05-16T08:44:29;14.30;37.00
728;DHT22;347;48.780;9.158;2023-05-16T08:46:56;14.40;36.80
728;DHT22;347;48.780;9.158;2023-05-16T08:49:22;14.30;36.50
728;DHT22;347;48.780;9.158;2023-05-16T08:51:56;14.30;36.50
728;DHT22;347;48.780;9.158;2023-05-16T08:54:23;14.30;36.50
728;DHT22;347;48.780;9.158;2023-05-16T08:56:49;14.30;36.80
728;DHT22;347;48.780;9.158;2023-05-16T08:59:15;14.20;36.60
728;DHT22;347;48.780;9.158;2023-05-16T09:01:41;14.30;36.80
728;DHT22;347;48.780;9.158;2023-05-16T09:04:07;14.30;36.90
728;DHT22;347;48.780;9.158;2023-05-16T09:06:35;14.30;36.80
728;DHT22;347;48.780;9.158;2023-05-16T09:09:00;14.30;37.00
728;DHT22;347;48.780;9.158;2023-05-16T09:11:27;14.40;37.30
728;DHT22;347;48.780;9.158;2023-05-16T09:13:53;14.40;37.60
728;DHT22;347;48.780;9.158;2023-05-16T09:16:19;14.50;37.30
728;DHT22;347;48.780;9.158;2023-05-16T09:18:55;14.50;37.00
728;DHT22;347;48.780;9.158;2023-05-16T09:21:25;14.50;37.10
728;DHT22;347;48.780;9.158;2023-05-16T09:23:51;14.50;37.30
728;DHT22;347;48.780;9.158;2023-05-16T09:26:17;14.60;37.20
728;DHT22;347;48.780;9.158;2023-05-16T09:28:43;14.60;37.30
728;DHT22;347;48.780;9.158;2023-05-16T09:31:22;14.60;37.30
728;DHT22;347;48.780;9.158;2023-05-16T09:33:56;14.60;37.30
728;DHT22;347;48.780;9.158;2023-05-16T09:36:22;14.60;37.40
728;DHT22;347;48.780;9.158;2023-05-16T09:38:51;14.50;37.80
728;DHT22;347;48.780;9.158;2023-05-16T09:41:17;14.70;38.10
728;DHT22;347;48.780;9.158;2023-05-16T09:43:43;14.60;37.60
728;DHT22;347;48.780;9.158;2023-05-16T09:46:13;14.60;37.80
728;DHT22;347;48.780;9.158;2023-05-16T09:48:46;14.70;37.70
728;DHT22;347;48.780;9.158;2023-05-16T09:51:12;14.70;37.60
728;DHT22;347;48.780;9.158;2023-05-16T09:53:39;14.70;37.70
728;DHT22;347;48.780;9.158;2023-05-16T09:56:09;14.70;37.80
728;DHT22;347;48.780;9.158;2023-05-16T09:58:40;14.70;37.50
728;DHT22;347;48.780;9.158;2023-05-16T10:01:07;14.70;37.60
728;DHT22;347;48.780;9.158;2023-05-16T10:03:38;14.70;37.10
728;DHT22;347;48.780;9.158;2023-05-16T10:06:05;14.80;36.90
728;DHT22;347;48.780;9.158;2023-05-16T10:08:32;14.90;36.20
728;DHT22;347;48.780;9.158;2023-05-16T10:11:01;14.90;35.80
728;DHT22;347;48.780;9.158;2023-05-16T10:13:29;14.90;35.80
728;DHT22;347;48.780;9.158;2023-05-16T10:15:57;14.80;36.20
728;DHT22;347;48.780;9.158;2023-05-16T10:18:31;14.90;35.80
728;DHT22;347;48.780;9.158;2023-05-16T10:21:03;14.80;35.70
728;DHT22;347;48.780;9.158;2023-05-16T10:23:30;14.80;35.70
728;DHT22;347;48.780;9.158;2023-05-16T10:25:57;15.00;35.90
728;DHT22;347;48.780;9.158;2023-05-16T10:28:23;15.00;35.90
728;DHT22;347;48.780;9.158;2023-05-16T10:30:50;15.10;36.00
728;DHT22;347;48.780;9.158;2023-05-16T10:33:17;15.10;35.20
728;DHT22;347;48.780;9.158;2023-05-16T10:35:44;15.20;35.10
728;DHT22;347;48.780;9.158;2023-05-16T10:38:12;15.20;34.60
728;DHT22;347;48.780;9.158;2023-05-16T10:40:39;15.20;34.80
728;DHT22;347;48.780;9.158;2023-05-16T10:43:07;15.20;34.60
728;DHT22;347;48.780;9.158;2023-05-16T10:45:38;15.20;34.60
728;DHT22;347;48.780;9.158;2023-05-16T10:48:04;15.20;35.10
728;DHT22;347;48.780;9.158;2023-05-16T10:50:39;15.20;34.50
728;DHT22;347;48.780;9.158;2023-05-16T10:53:19;15.30;34.20
728;DHT22;347;48.780;9.158;2023-05-16T11:01:28;15.20;35.10
728;DHT22;347;48.780;9.158;2023-05-16T11:09:18;15.00;37.10
728;DHT22;347;48.780;9.158;2023-05-16T11:11:55;15.00;37.50
728;DHT22;347;48.780;9.158;2023-05-16T11:14:34;14.90;37.40
728;DHT22;347;48.780;9.158;2023-05-16T11:17:14;15.00;38.50
728;DHT22;347;48.780;9.158;2023-05-16T11:27:36;14.80;40.60
728;DHT22;347;48.780;9.158;2023-05-16T11:32:34;14.80;40.80
728;DHT22;347;48.780;9.158;2023-05-16T11:35:00;14.80;39.60
728;DHT22;347;48.780;9.158;2023-05-16T11:37:28;14.70;40.50
728;DHT22;347;48.780;9.158;2023-05-16T11:40:07;14.60;41.00
728;DHT22;347;48.780;9.158;2023-05-16T11:42:35;14.60;39.60
728;DHT22;347;48.780;9.158;2023-05-16T11:45:14;14.50;40.70
728;DHT22;347;48.780;9.158;2023-05-16T11:47:41;14.40;40.10
728;DHT22;347;48.780;9.158;2023-05-16T11:50:18;14.40;40.30
728;DHT22;347;48.780;9.158;2023-05-16T11:52:50;14.40;40.10
728;DHT22;347;48.780;9.158;2023-05-16T11:55:20;14.40;40.90
728;DHT22;347;48.780;9.158;2023-05-16T11:57:46;14.40;41.10
728;DHT22;347;48.780;9.158;2023-05-16T12:00:16;14.40;40.80
728;DHT22;347;48.780;9.158;2023-05-16T12:02:43;14.50;40.40
728;DHT22;347;48.780;9.158;2023-05-16T12:05:10;14.40;40.00
728;DHT22;347;48.780;9.158;2023-05-16T12:07:36;14.50;39.70
728;DHT22;347;48.780;9.158;2023-05-16T12:10:06;14.50;39.60
728;DHT22;347;48.780;9.158;2023-05-16T12:12:32;14.50;39.30
728;DHT22;347;48.780;9.158;2023-05-16T12:14:58;14.40;39.50
728;DHT22;347;48.780;9.158;2023-05-16T12:17:25;14.40;39.20
728;DHT22;347;48.780;9.158;2023-05-16T12:19:51;14.50;38.70
728;DHT22;347;48.780;9.158;2023-05-16T12:22:16;14.60;37.70
728;DHT22;347;48.780;9.158;2023-05-16T12:24:42;14.60;37.10
728;DHT22;347;48.780;9.158;2023-05-16T12:27:08;14.60;35.60
728;DHT22;347;48.780;9.158;2023-05-16T12:29:34;14.60;35.50
728;DHT22;347;48.780;9.158;2023-05-16T12:31:59;14.50;35.50
728;DHT22;347;48.780;9.158;2023-05-16T12:34:29;14.50;35.40
728;DHT22;347;48.780;9.158;2023-05-16T12:36:55;14.50;35.50
728;DHT22;347;48.780;9.158;2023-05-16T12:39:21;14.50;35.10
728;DHT22;347;48.780;9.158;2023-05-16T12:41:47;14.50;35.40
728;DHT22;347;48.780;9.158;2023-05-16T12:44:17;14.50;35.50
728;DHT22;347;48.780;9.158;2023-05-16T12:46:45;14.60;34.80
728;DHT22;347;48.780;9.158;2023-05-16T12:49:11;14.60;34.00
728;DHT22;347;48.780;9.158;2023-05-16T12:51:38;14.50;35.40
728;DHT22;347;48.780;9.158;2023-05-16T12:54:10;14.50;35.30
728;DHT22;347;48.780;9.158;2023-05-16T12:56:40;14.60;35.50
728;DHT22;347;48.780;9.158;2023-05-16T12:59:06;14.60;35.50
728;DHT22;347;48.780;9.158;2023-05-16T13:01:33;14.60;35.60
728;DHT22;347;48.780;9.158;2023-05-16T13:04:02;14.50;35.40
728;DHT22;347;48.780;9.158;2023-05-16T13:06:28;14.40;34.70
728;DHT22;347;48.780;9.158;2023-05-16T13:08:54;14.40;35.40
728;DHT22;347;48.780;9.158;2023-05-16T13:11:20;14.30;35.20
728;DHT22;347;48.780;9.158;2023-05-16T13:13:46;14.20;35.20
728;DHT22;347;48.780;9.158;2023-05-16T13:16:12;14.20;35.20
728;DHT22;347;48.780;9.158;2023-05-16T13:18:37;14.20;35.60
728;DHT22;347;48.780;9.158;2023-05-16T13:21:03;14.20;35.20
728;DHT22;347;48.780;9.158;2023-05-16T13:23:29;14.10;34.50
728;DHT22;347;48.780;9.158;2023-05-16T13:25:55;14.10;35.10
728;DHT22;347;48.780;9.158;2023-05-16T13:28:20;14.10;35.10
728;DHT22;347;48.780;9.158;2023-05-16T13:30:46;14.10;35.10
728;DHT22;347;48.780;9.158;2023-05-16T13:33:12;14.10;35.10
728;DHT22;347;48.780;9.158;2023-05-16T13:35:37;14.10;35.80
728;DHT22;347;48.780;9.158;2023-05-16T13:38:03;14.00;35.00
728;DHT22;347;48.780;9.158;2023-05-16T13:40:29;14.00;34.30
728;DHT22;347;48.780;9.158;2023-05-16T13:42:55;14.00;34.10
728;DHT22;347;48.780;9.158;2023-05-16T13:45:21;14.00;34.60
728;DHT22;347;48.780;9.158;2023-05-16T13:47:46;14.00;34.10
728;DHT22;347;48.780;9.158;2023-05-16T13:50:12;14.00;34.10
728;DHT22;347;48.780;9.158;2023-05-16T13:52:38;14.00;34.30
728;DHT22;347;48.780;9.158;2023-05-16T13:55:05;14.00;34.30
728;DHT22;347;48.780;9.158;2023-05-16T13:57:31;14.00;34.50
728;DHT22;347;48.780;9.158;2023-05-16T13:59:58;14.10;34.70
728;DHT22;347;48.780;9.158;2023-05-16T14:02:23;14.20;34.90
728;DHT22;347;48.780;9.158;2023-05-16T14:04:50;14.30;33.90
728;DHT22;347;48.780;9.158;2023-05-16T14:07:16;14.30;33.70
728;DHT22;347;48.780;9.158;2023-05-16T14:09:41;14.30;33.90
728;DHT22;347;48.780;9.158;2023-05-16T14:12:08;14.30;33.20
728;DHT22;347;48.780;9.158;2023-05-16T14:14:34;14.30;32.00
728;DHT22;347;48.780;9.158;2023-05-16T14:17:01;14.30;32.60
728;DHT22;347;48.780;9.158;2023-05-16T14:19:27;14.30;32.80
728;DHT22;347;48.780;9.158;2023-05-16T14:21:52;14.30;32.90
728;DHT22;347;48.780;9.158;2023-05-16T14:24:18;14.30;33.10
728;DHT22;347;48.780;9.158;2023-05-16T14:26:43;14.40;32.50
728;DHT22;347;48.780;9.158;2023-05-16T14:29:11;14.30;32.70
728;DHT22;347;48.780;9.158;2023-05-16T14:31:38;14.40;32.90
728;DHT22;347;48.780;9.158;2023-05-16T14:34:03;14.40;32.10
728;DHT22;347;48.780;9.158;2023-05-16T14:36:29;14.50;31.70
728;DHT22;347;48.780;9.158;2023-05-16T14:38:56;14.50;31.50
728;DHT22;347;48.780;9.158;2023-05-16T14:41:22;14.50;32.00
728;DHT22;347;48.780;9.158;2023-05-16T14:43:47;14.30;32.20
728;DHT22;347;48.780;9.158;2023-05-16T14:46:13;14.40;31.40
728;DHT22;347;48.780;9.158;2023-05-16T14:48:38;14.50;31.00
728;DHT22;347;48.780;9.158;2023-05-16T14:51:05;14.60;29.60
728;DHT22;347;48.780;9.158;2023-05-16T14:53:31;14.60;28.80
728;DHT22;347;48.780;9.158;2023-05-16T14:55:57;14.60;28.70
728;DHT22;347;48.780;9.158;2023-05-16T14:58:23;14.60;28.20
728;DHT22;347;48.780;9.158;2023-05-16T15:00:49;14.60;28.20
728;DHT22;347;48.780;9.158;2023-05-16T15:03:16;14.60;28.40
728;DHT22;347;48.780;9.158;2023-05-16T15:05:42;14.70;28.10
728;DHT22;347;48.780;9.158;2023-05-16T15:08:08;14.70;27.20
728;DHT22;347;48.780;9.158;2023-05-16T15:10:34;14.70;26.40
728;DHT22;347;48.780;9.158;2023-05-16T15:13:00;14.70;26.40
728;DHT22;347;48.780;9.158;2023-05-16T15:15:25;14.70;26.40
728;DHT22;347;48.780;9.158;2023-05-16T15:17:51;14.70;26.40
728;DHT22;347;48.780;9.158;2023-05-16T15:20:18;14.80;26.40
728;DHT22;347;48.780;9.158;2023-05-16T15:22:43;14.80;26.40
728;DHT22;347;48.780;9.158;2023-05-16T15:25:09;14.80;26.40
728;DHT22;347;48.780;9.158;2023-05-16T15:27:35;14.80;26.40
728;DHT22;347;48.780;9.158;2023-05-16T15:30:01;14.80;26.50
728;DHT22;347;48.780;9.158;2023-05-16T15:32:26;14.80;26.50
728;DHT22;347;48.780;9.158;2023-05-16T15:34:52;14.90;26.50
728;DHT22;347;48.780;9.158;2023-05-16T15:37:18;14.90;26.50
728;DHT22;347;48.780;9.158;2023-05-16T15:39:43;14.90;27.50
728;DHT22;347;48.780;9.158;2023-05-16T15:42:09;14.80;27.30
728;DHT22;347;48.780;9.158;2023-05-16T15:44:35;14.80;27.70
728;DHT22;347;48.780;9.158;2023-05-16T15:47:01;14.80;27.80
728;DHT22;347;48.780;9.158;2023-05-16T15:49:27;14.80;28.10
728;DHT22;347;48.780;9.158;2023-05-16T15:51:52;14.80;28.60
728;DHT22;347;48.780;9.158;2023-05-16T15:54:18;14.80;28.20
728;DHT22;347;48.780;9.158;2023-05-16T15:56:44;14.80;27.60
728;DHT22;347;48.780;9.158;2023-05-16T15:59:10;14.80;26.40
728;DHT22;347;48.780;9.158;2023-05-16T16:01:35;14.80;27.30
728;DHT22;347;48.780;9.158;2023-05-16T16:04:01;14.70;26.50
728;DHT22;347;48.780;9.158;2023-05-16T16:06:27;14.70;26.40
728;DHT22;347;48.780;9.158;2023-05-16T16:08:52;14.70;26.40
728;DHT22;347;48.780;9.158;2023-05-16T16:11:18;14.60;26.30
728;DHT22;347;48.780;9.158;2023-05-16T16:13:46;14.60;26.30
728;DHT22;347;48.780;9.158;2023-05-16T16:16:12;14.60;26.40
728;DHT22;347;48.780;9.158;2023-05-16T16:18:37;14.60;26.30
728;DHT22;347;48.780;9.158;2023-05-16T16:21:03;14.70;26.30
728;DHT22;347;48.780;9.158;2023-05-16T16:23:30;14.60;25.40
728;DHT22;347;48.780;9.158;2023-05-16T16:25:55;14.60;25.40
728;DHT22;347;48.780;9.158;2023-05-16T16:28:24;14.60;25.00
728;DHT22;347;48.780;9.158;2023-05-16T16:30:49;14.60;25.60
728;DHT22;347;48.780;9.158;2023-05-16T16:33:15;14.60;25.00
728;DHT22;347;48.780;9.158;2023-05-16T16:35:41;14.60;25.30
728;DHT22;347;48.780;9.158;2023-05-16T16:38:07;14.50;25.60
728;DHT22;347;48.780;9.158;2023-05-16T16:40:33;14.60;25.60
728;DHT22;347;48.780;9.158;2023-05-16T16:42:58;14.70;25.10
728;DHT22;347;48.780;9.158;2023-05-16T16:45:24;14.70;24.80
728;DHT22;347;48.780;9.158;2023-05-16T16:47:51;14.70;24.10
728;DHT22;347;48.780;9.158;2023-05-16T16:50:16;14.70;24.00
728;DHT22;347;48.780;9.158;2023-05-16T16:52:42;14.70;24.20
728;DHT22;347;48.780;9.158;2023-05-16T16:55:08;14.80;23.80
728;DHT22;347;48.780;9.158;2023-05-16T16:57:33;14.80;23.40
728;DHT22;347;48.780;9.158;2023-05-16T16:59:59;14.80;22.60